Time;durP1;ratioP1;P1;durP2;ratioP2;P2;SDS_P1;SDS_P2;PMS_P1;PMS_P2;Temp;Humidity;BMP_temperature;BMP_pressure;BME280_temperature;BME280_humidity;BME280_pressure;Samples;Min_cycle;Max_cycle;Signal;HPM_P1;HPM_P2
2022/04/22 00:01:44;;;;;;;7.93;3.00;;;;;;;;;;5008073;28;20554;-78
2022/04/22 00:04:09;;;;;;;8.50;3.28;;;;;;;;;;5013898;28;20087;-79
2022/04/22 00:06:35;;;;;;;10.90;3.08;;;;;;;;;;5008102;28;20041;-78
2022/04/22 00:09:00;;;;;;;6.82;3.17;;;;;;;;;;5024980;28;20049;-80
2022/04/22 00:11:31;;;;;;;8.07;3.05;;;;;;;;;;5001770;28;20042;-79
2022/04/22 00:14:02;;;;;;;6.55;2.83;;;;;;;;;;5008813;28;20544;-79
2022/04/22 00:16:30;;;;;;;6.85;3.03;;;;;;;;;;5008103;28;20029;-79
2022/04/22 00:18:56;;;;;;;6.68;2.83;;;;;;;;;;5008182;28;20029;-80
2022/04/22 00:21:21;;;;;;;7.05;2.90;;;;;;;;;;5007734;28;20486;-79
2022/04/22 00:23:48;;;;;;;7.22;2.88;;;;;;;;;;5024683;28;20081;-79
2022/04/22 00:26:13;;;;;;;5.78;2.78;;;;;;;;;;5006256;28;20485;-79
2022/04/22 00:28:38;;;;;;;8.00;3.20;;;;;;;;;;5003996;28;20061;-78
2022/04/22 00:31:04;;;;;;;8.50;2.92;;;;;;;;;;5024614;28;20045;-78
2022/04/22 00:33:29;;;;;;;5.95;2.75;;;;;;;;;;5009582;28;20049;-79
2022/04/22 00:35:54;;;;;;;9.57;3.28;;;;;;;;;;5008150;28;20159;-79
2022/04/22 00:38:20;;;;;;;5.93;2.55;;;;;;;;;;5001945;28;20755;-79
2022/04/22 00:40:45;;;;;;;8.25;2.80;;;;;;;;;;5008476;28;20049;-79
2022/04/22 00:43:21;;;;;;;9.23;3.40;;;;;;;;;;5008337;28;20045;-79
2022/04/22 00:45:48;;;;;;;10.15;3.38;;;;;;;;;;5007585;28;20139;-79
2022/04/22 00:48:14;;;;;;;8.68;3.05;;;;;;;;;;5040669;28;20523;-79
2022/04/22 00:50:40;;;;;;;8.57;3.00;;;;;;;;;;5007879;28;20042;-80
2022/04/22 00:53:06;;;;;;;6.93;3.30;;;;;;;;;;5008659;28;20037;-79
2022/04/22 00:55:32;;;;;;;6.65;3.22;;;;;;;;;;5025685;28;20832;-80
2022/04/22 00:58:01;;;;;;;7.63;3.10;;;;;;;;;;5008526;28;20501;-79
2022/04/22 01:00:27;;;;;;;7.85;3.42;;;;;;;;;;5007477;28;20041;-78
2022/04/22 01:02:52;;;;;;;9.82;3.70;;;;;;;;;;5007782;28;20507;-78
2022/04/22 01:10:46;;;;;;;7.72;3.80;;;;;;;;;;5014747;28;20095;-79
2022/04/22 01:13:12;;;;;;;7.00;3.50;;;;;;;;;;5007610;28;20045;-79
2022/04/22 01:15:37;;;;;;;9.00;3.78;;;;;;;;;;5002239;28;20623;-79
2022/04/22 01:18:03;;;;;;;7.15;3.83;;;;;;;;;;5023894;28;20119;-79
2022/04/22 01:20:29;;;;;;;9.40;3.78;;;;;;;;;;4996594;28;20509;-79
2022/04/22 01:22:54;;;;;;;8.10;3.63;;;;;;;;;;5008390;28;20030;-79
2022/04/22 01:25:19;;;;;;;9.70;4.25;;;;;;;;;;5010728;28;20072;-79
2022/04/22 01:27:49;;;;;;;9.77;4.13;;;;;;;;;;5011270;28;20095;-79
2022/04/22 01:30:14;;;;;;;9.07;3.58;;;;;;;;;;5011138;28;20111;-80
2022/04/22 01:32:41;;;;;;;7.88;4.28;;;;;;;;;;5010579;28;20060;-79
2022/04/22 01:35:06;;;;;;;7.97;4.15;;;;;;;;;;5011402;28;20044;-78
2022/04/22 01:37:32;;;;;;;10.30;4.97;;;;;;;;;;5002783;28;20520;-82
2022/04/22 01:39:58;;;;;;;9.38;4.32;;;;;;;;;;5011895;28;20037;-79
2022/04/22 01:42:23;;;;;;;9.27;4.55;;;;;;;;;;5010144;28;20595;-79
2022/04/22 01:44:51;;;;;;;8.90;4.70;;;;;;;;;;5006481;28;20141;-79
2022/04/22 01:47:16;;;;;;;;;;;;;;;;;;5010515;28;20236;-79
2022/04/22 01:49:44;;;;;;;7.97;4.45;;;;;;;;;;5010995;28;20484;-80
2022/04/22 01:52:10;;;;;;;15.10;5.10;;;;;;;;;;5009975;28;20037;-80
2022/04/22 01:54:35;;;;;;;8.57;4.93;;;;;;;;;;5010379;28;20080;-79
2022/04/22 01:57:01;;;;;;;12.73;5.53;;;;;;;;;;5011481;28;20109;-79
2022/04/22 01:59:27;;;;;;;10.55;5.32;;;;;;;;;;5026899;28;20033;-79
2022/04/22 02:01:52;;;;;;;11.38;5.22;;;;;;;;;;5026560;28;20052;-79
2022/04/22 02:04:18;;;;;;;11.18;5.43;;;;;;;;;;5003456;28;20500;-79
2022/04/22 02:06:44;;;;;;;11.55;5.43;;;;;;;;;;5010420;28;20038;-79
2022/04/22 02:09:09;;;;;;;13.68;5.68;;;;;;;;;;5010251;28;20606;-79
2022/04/22 02:11:35;;;;;;;13.02;5.47;;;;;;;;;;5005498;28;20047;-79
2022/04/22 02:14:00;;;;;;;13.68;5.72;;;;;;;;;;5003520;28;20044;-78
2022/04/22 02:16:25;;;;;;;11.30;5.80;;;;;;;;;;5009359;28;20056;-80
2022/04/22 02:18:51;;;;;;;11.13;5.35;;;;;;;;;;5026462;28;22558;-79
2022/04/22 02:21:17;;;;;;;11.93;5.55;;;;;;;;;;5025850;28;20029;-79
2022/04/22 02:23:43;;;;;;;11.80;5.35;;;;;;;;;;5007102;28;20491;-79
2022/04/22 02:26:08;;;;;;;10.40;5.68;;;;;;;;;;5026399;28;20033;-79
2022/04/22 02:28:34;;;;;;;15.65;6.43;;;;;;;;;;5009885;28;20069;-79
2022/04/22 02:31:17;;;;;;;11.23;5.45;;;;;;;;;;5009275;28;20071;-79
2022/04/22 02:33:42;;;;;;;11.30;6.00;;;;;;;;;;5000431;28;20037;-81
2022/04/22 02:36:08;;;;;;;11.65;5.30;;;;;;;;;;5001871;28;20045;-80
2022/04/22 02:38:34;;;;;;;9.48;5.72;;;;;;;;;;5009780;28;20056;-79
2022/04/22 02:46:28;;;;;;;16.02;5.80;;;;;;;;;;5025764;28;20504;-78
2022/04/22 02:48:58;;;;;;;14.55;5.88;;;;;;;;;;5025515;28;20037;-80
2022/04/22 02:51:24;;;;;;;11.65;6.18;;;;;;;;;;4999995;28;20041;-79
2022/04/22 02:53:49;;;;;;;10.75;5.85;;;;;;;;;;5026289;28;20033;-79
2022/04/22 02:56:19;;;;;;;11.27;5.90;;;;;;;;;;5025403;28;20485;-78
2022/04/22 02:58:44;;;;;;;11.20;5.82;;;;;;;;;;5009847;28;20037;-78
2022/04/22 03:01:10;;;;;;;9.95;5.93;;;;;;;;;;5008556;28;20079;-78
2022/04/22 03:03:35;;;;;;;12.75;6.07;;;;;;;;;;5025487;28;20038;-79
2022/04/22 03:06:01;;;;;;;11.98;6.10;;;;;;;;;;5024961;28;20060;-79
2022/04/22 03:08:26;;;;;;;11.45;5.90;;;;;;;;;;5024970;28;21206;-80
2022/04/22 03:10:52;;;;;;;9.55;5.80;;;;;;;;;;5010144;28;20621;-79
2022/04/22 03:13:17;;;;;;;10.98;5.90;;;;;;;;;;5002347;28;20036;-79
2022/04/22 03:15:45;;;;;;;15.50;7.00;;;;;;;;;;5025934;28;20037;-78
2022/04/22 03:18:11;;;;;;;12.73;5.90;;;;;;;;;;5009019;28;20519;-80
2022/04/22 03:20:36;;;;;;;11.82;6.13;;;;;;;;;;5025896;28;20040;-79
2022/04/22 03:23:02;;;;;;;12.23;5.72;;;;;;;;;;5004654;28;20107;-83
2022/04/22 03:25:27;;;;;;;17.10;5.93;;;;;;;;;;5009729;28;20516;-78
2022/04/22 03:27:52;;;;;;;14.52;6.60;;;;;;;;;;5009958;28;20057;-79
2022/04/22 03:30:18;;;;;;;13.90;6.53;;;;;;;;;;5008210;28;20540;-79
2022/04/22 03:32:44;;;;;;;14.73;6.63;;;;;;;;;;5008557;28;20160;-79
2022/04/22 03:35:10;;;;;;;12.50;6.15;;;;;;;;;;5001244;28;20033;-79
2022/04/22 03:37:35;;;;;;;11.80;6.53;;;;;;;;;;5007845;28;20486;-80
2022/04/22 03:40:01;;;;;;;12.88;6.43;;;;;;;;;;5026119;28;20037;-79
2022/04/22 03:42:28;;;;;;;13.43;6.47;;;;;;;;;;5007789;28;20029;-79
2022/04/22 03:44:55;;;;;;;10.65;6.13;;;;;;;;;;5008847;28;20026;-79
2022/04/22 03:47:21;;;;;;;10.68;6.35;;;;;;;;;;5023683;28;20048;-79
2022/04/22 03:49:46;;;;;;;15.20;5.95;;;;;;;;;;5025654;28;20116;-79
2022/04/22 03:52:12;;;;;;;13.77;6.75;;;;;;;;;;5020702;28;20033;-79
2022/04/22 03:54:37;;;;;;;14.27;6.32;;;;;;;;;;5025740;28;20127;-79
2022/04/22 03:59:47;;;;;;;10.63;5.93;;;;;;;;;;5024390;28;20043;-80
2022/04/22 04:02:12;;;;;;;13.00;6.22;;;;;;;;;;5024741;28;20029;-78
2022/04/22 04:04:38;;;;;;;13.52;6.65;;;;;;;;;;5009837;28;20146;-78
2022/04/22 04:07:03;;;;;;;12.40;6.72;;;;;;;;;;5002828;28;20037;-79
2022/04/22 04:17:40;;;;;;;12.68;6.53;;;;;;;;;;5024873;28;20091;-78
2022/04/22 04:25:34;;;;;;;11.30;5.93;;;;;;;;;;5023693;28;20195;-78
2022/04/22 04:27:59;;;;;;;12.98;6.95;;;;;;;;;;5008593;28;20474;-78
2022/04/22 04:30:25;;;;;;;12.82;6.35;;;;;;;;;;5007716;28;20440;-78
2022/04/22 04:32:50;;;;;;;13.93;6.88;;;;;;;;;;5001737;28;20041;-80
2022/04/22 04:35:16;;;;;;;13.52;6.22;;;;;;;;;;5024020;28;20115;-80
2022/04/22 04:37:41;;;;;;;11.82;6.82;;;;;;;;;;5007814;28;20116;-79
2022/04/22 04:40:08;;;;;;;15.75;7.80;;;;;;;;;;5000958;28;20099;-80
2022/04/22 04:42:34;;;;;;;12.77;6.50;;;;;;;;;;5008227;28;20505;-79
2022/04/22 04:44:59;;;;;;;14.23;7.47;;;;;;;;;;5025148;28;20040;-79
2022/04/22 04:47:24;;;;;;;10.88;6.43;;;;;;;;;;5007085;28;20459;-79
2022/04/22 04:49:50;;;;;;;12.93;6.68;;;;;;;;;;5007748;28;20120;-79
2022/04/22 04:52:15;;;;;;;13.20;7.20;;;;;;;;;;5000977;28;20045;-80
2022/04/22 04:54:43;;;;;;;10.75;6.55;;;;;;;;;;5008359;28;20413;-79
2022/04/22 04:57:08;;;;;;;12.63;6.93;;;;;;;;;;5005836;28;20159;-79
2022/04/22 04:59:34;;;;;;;13.65;7.55;;;;;;;;;;5007766;28;20116;-78
2022/04/22 05:01:59;;;;;;;13.55;7.38;;;;;;;;;;5023735;28;20037;-79
2022/04/22 05:04:25;;;;;;;12.73;6.65;;;;;;;;;;5007714;28;20072;-79
2022/04/22 05:06:50;;;;;;;16.80;7.05;;;;;;;;;;5006583;28;20619;-78
2022/04/22 05:09:15;;;;;;;14.80;6.90;;;;;;;;;;5002463;28;20069;-78
2022/04/22 05:11:41;;;;;;;14.68;7.03;;;;;;;;;;5006975;28;20642;-77
2022/04/22 05:14:07;;;;;;;12.02;6.75;;;;;;;;;;5007728;28;20060;-77
2022/04/22 05:16:32;;;;;;;14.63;6.70;;;;;;;;;;5006874;28;20053;-78
2022/04/22 05:18:58;;;;;;;13.00;7.03;;;;;;;;;;5007297;28;20084;-78
2022/04/22 05:21:23;;;;;;;12.57;7.10;;;;;;;;;;5005887;28;20033;-79
2022/04/22 05:23:49;;;;;;;12.38;6.75;;;;;;;;;;5023627;28;20042;-77
2022/04/22 05:26:14;;;;;;;13.63;7.03;;;;;;;;;;5006952;28;20043;-77
2022/04/22 05:28:39;;;;;;;12.10;6.95;;;;;;;;;;5006599;28;20091;-77
2022/04/22 05:33:48;;;;;;;12.43;7.13;;;;;;;;;;5023438;28;20064;-77
2022/04/22 05:36:13;;;;;;;11.65;6.82;;;;;;;;;;5006665;28;20501;-77
2022/04/22 05:38:39;;;;;;;13.50;6.80;;;;;;;;;;5006590;28;20072;-77
2022/04/22 05:41:04;;;;;;;15.18;6.97;;;;;;;;;;5006743;28;20025;-77
2022/04/22 05:43:30;;;;;;;16.08;7.00;;;;;;;;;;5007743;28;20038;-76
2022/04/22 05:45:55;;;;;;;12.02;6.90;;;;;;;;;;5006400;28;20602;-77
2022/04/22 05:48:20;;;;;;;14.68;6.72;;;;;;;;;;5005983;28;20114;-75
2022/04/22 05:50:46;;;;;;;15.32;7.93;;;;;;;;;;5006240;28;20441;-75
2022/04/22 05:53:11;;;;;;;15.40;6.82;;;;;;;;;;5006012;28;20061;-76
2022/04/22 05:55:37;;;;;;;17.42;7.28;;;;;;;;;;5022479;28;20552;-77
2022/04/22 05:58:02;;;;;;;12.07;6.78;;;;;;;;;;5007152;28;20030;-77
2022/04/22 06:00:30;;;;;;;10.88;6.90;;;;;;;;;;4998411;28;20033;-76
2022/04/22 06:02:56;;;;;;;12.65;7.18;;;;;;;;;;5023120;28;20030;-76
2022/04/22 06:05:22;;;;;;;13.63;7.00;;;;;;;;;;5006326;28;20536;-76
2022/04/22 06:10:31;;;;;;;12.63;7.68;;;;;;;;;;5006310;28;20450;-76
2022/04/22 06:10:33;;;;;;;12.52;6.72;;;;;;;;;;5026129;28;20133;-76
2022/04/22 06:12:59;;;;;;;13.18;6.43;;;;;;;;;;5011270;28;20051;-76
2022/04/22 06:15:25;;;;;;;12.68;7.05;;;;;;;;;;5042639;28;20384;-77
2022/04/22 06:17:51;;;;;;;12.32;6.80;;;;;;;;;;5010101;28;20493;-76
2022/04/22 06:20:17;;;;;;;13.02;7.07;;;;;;;;;;5026042;28;20112;-76
2022/04/22 06:22:42;;;;;;;13.63;7.47;;;;;;;;;;5010046;28;20117;-76
2022/04/22 06:25:11;;;;;;;10.13;6.78;;;;;;;;;;5009845;28;20037;-77
2022/04/22 06:27:41;;;;;;;10.48;6.32;;;;;;;;;;5009759;28;20117;-76
2022/04/22 06:30:34;;;;;;;14.15;6.70;;;;;;;;;;5010739;28;20069;-76
2022/04/22 06:33:03;;;;;;;12.55;6.85;;;;;;;;;;5007442;28;20061;-77
2022/04/22 06:35:28;;;;;;;13.75;7.70;;;;;;;;;;4992139;28;20044;-77
2022/04/22 06:37:54;;;;;;;14.93;7.20;;;;;;;;;;4991318;28;20041;-76
2022/04/22 06:45:50;;;;;;;10.48;6.63;;;;;;;;;;5010203;28;20132;-76
2022/04/22 06:48:18;;;;;;;11.80;7.00;;;;;;;;;;5007794;28;20560;-76
2022/04/22 06:50:50;;;;;;;11.07;7.18;;;;;;;;;;5007498;28;20059;-78
2022/04/22 06:53:17;;;;;;;14.65;7.30;;;;;;;;;;4990282;28;20512;-77
2022/04/22 06:55:43;;;;;;;11.38;6.93;;;;;;;;;;4991174;28;20083;-76
2022/04/22 06:58:11;;;;;;;11.48;7.05;;;;;;;;;;5006267;28;20511;-76
2022/04/22 07:00:36;;;;;;;;;;;;;;;;;;5007946;28;20148;-77
2022/04/22 07:03:02;;;;;;;13.05;7.30;;;;;;;;;;4990775;28;19999;-78
2022/04/22 07:05:28;;;;;;;12.57;7.05;;;;;;;;;;5007292;28;20037;-76
2022/04/22 07:07:53;;;;;;;12.77;7.28;;;;;;;;;;4990077;28;20060;-77
2022/04/22 07:10:19;;;;;;;15.10;7.50;;;;;;;;;;5015595;28;20462;-76
2022/04/22 07:12:44;;;;;;;11.75;7.00;;;;;;;;;;5005924;28;20393;-77
2022/04/22 07:15:10;;;;;;;11.00;7.13;;;;;;;;;;5008166;28;20080;-77
2022/04/22 07:17:40;;;;;;;11.55;6.90;;;;;;;;;;5007395;28;20079;-77
2022/04/22 07:20:11;;;;;;;11.32;6.93;;;;;;;;;;5006393;28;20041;-78
2022/04/22 07:22:37;;;;;;;9.95;6.25;;;;;;;;;;5023311;28;20559;-76
2022/04/22 07:25:04;;;;;;;12.02;6.63;;;;;;;;;;5001066;28;20044;-77
2022/04/22 07:27:33;;;;;;;11.43;6.73;;;;;;;;;;5000956;28;20063;-77
2022/04/22 07:29:59;;;;;;;9.43;6.78;;;;;;;;;;5008506;28;20692;-77
2022/04/22 07:32:25;;;;;;;11.32;6.75;;;;;;;;;;5006688;28;20128;-77
2022/04/22 07:34:51;;;;;;;11.35;6.40;;;;;;;;;;5001874;28;20052;-77
2022/04/22 07:37:17;;;;;;;10.18;6.43;;;;;;;;;;5022969;28;20056;-76
2022/04/22 07:39:43;;;;;;;11.10;7.00;;;;;;;;;;5005574;28;20631;-76
2022/04/22 07:42:14;;;;;;;10.18;6.50;;;;;;;;;;5006830;28;20021;-78
2022/04/22 07:47:24;;;;;;;13.68;6.60;;;;;;;;;;5023695;28;20048;-78
2022/04/22 07:49:51;;;;;;;13.32;6.45;;;;;;;;;;5024290;28;20525;-79
2022/04/22 07:52:16;;;;;;;11.50;6.50;;;;;;;;;;5007584;28;20060;-78
2022/04/22 07:54:41;;;;;;;11.27;7.07;;;;;;;;;;5024590;28;20382;-78
2022/04/22 07:57:07;;;;;;;11.88;6.65;;;;;;;;;;5006828;28;20871;-79
2022/04/22 07:59:35;;;;;;;10.15;6.55;;;;;;;;;;5008538;28;20045;-78
2022/04/22 08:02:00;;;;;;;11.63;6.18;;;;;;;;;;5003580;28;22302;-78
2022/04/22 08:04:26;;;;;;;12.38;6.38;;;;;;;;;;5007655;28;20038;-79
2022/04/22 08:06:51;;;;;;;14.20;6.60;;;;;;;;;;5023553;28;20716;-78
2022/04/22 08:09:17;;;;;;;10.80;7.03;;;;;;;;;;5000788;28;20049;-77
2022/04/22 08:11:43;;;;;;;15.30;7.57;;;;;;;;;;5006766;28;20030;-76
2022/04/22 08:14:12;;;;;;;14.38;7.68;;;;;;;;;;5007310;28;20041;-77
2022/04/22 08:16:38;;;;;;;14.65;8.20;;;;;;;;;;4991373;28;20121;-77
2022/04/22 08:19:03;;;;;;;14.52;8.55;;;;;;;;;;5007324;28;20116;-79
2022/04/22 08:21:33;;;;;;;13.07;8.27;;;;;;;;;;5024284;28;20037;-76
2022/04/22 08:23:58;;;;;;;14.63;8.27;;;;;;;;;;5007854;28;20034;-75
2022/04/22 08:26:23;;;;;;;13.15;7.95;;;;;;;;;;4999064;28;20076;-77
2022/04/22 08:28:49;;;;;;;15.50;8.40;;;;;;;;;;5023748;28;20497;-77
2022/04/22 08:31:16;;;;;;;14.88;8.23;;;;;;;;;;5023457;28;20037;-77
2022/04/22 08:33:45;;;;;;;13.57;9.00;;;;;;;;;;5006339;28;20451;-76
2022/04/22 08:36:14;;;;;;;15.00;8.82;;;;;;;;;;5008043;28;20475;-77
2022/04/22 08:38:40;;;;;;;13.38;9.18;;;;;;;;;;5013029;28;20123;-77
2022/04/22 08:41:07;;;;;;;14.70;9.20;;;;;;;;;;5006651;28;20041;-77
2022/04/22 08:43:33;;;;;;;15.80;9.48;;;;;;;;;;5001103;28;20566;-77
2022/04/22 08:46:00;;;;;;;12.60;9.23;;;;;;;;;;5000423;28;20112;-77
2022/04/22 08:51:09;;;;;;;14.68;9.23;;;;;;;;;;5022070;28;20626;-78
2022/04/22 08:53:36;;;;;;;14.05;8.90;;;;;;;;;;5002182;28;20064;-78
2022/04/22 08:56:02;;;;;;;15.60;9.70;;;;;;;;;;5022805;28;20029;-77
2022/04/22 08:58:27;;;;;;;14.55;9.40;;;;;;;;;;5023637;28;20042;-77
2022/04/22 09:00:54;;;;;;;12.85;9.45;;;;;;;;;;5005903;28;20517;-77
2022/04/22 09:03:20;;;;;;;13.85;9.25;;;;;;;;;;5002085;28;20038;-77
2022/04/22 09:05:45;;;;;;;14.98;9.43;;;;;;;;;;5017361;28;20527;-78
2022/04/22 09:08:11;;;;;;;14.30;10.38;;;;;;;;;;5006885;28;20488;-78
2022/04/22 09:10:38;;;;;;;13.13;8.95;;;;;;;;;;5022289;28;20037;-79
2022/04/22 09:13:09;;;;;;;12.30;8.30;;;;;;;;;;5007326;28;20098;-77
2022/04/22 09:15:35;;;;;;;16.92;8.95;;;;;;;;;;5038754;28;20037;-78
2022/04/22 09:18:12;;;;;;;13.90;9.13;;;;;;;;;;5006710;28;20374;-78
2022/04/22 09:20:38;;;;;;;13.98;9.52;;;;;;;;;;5022907;28;20113;-78
2022/04/22 09:23:24;;;;;;;14.20;9.15;;;;;;;;;;5006565;28;20731;-77
2022/04/22 09:25:49;;;;;;;12.25;9.35;;;;;;;;;;5022616;28;20038;-77
2022/04/22 09:28:15;;;;;;;14.18;9.13;;;;;;;;;;4999700;28;20508;-77
2022/04/22 09:30:41;;;;;;;13.35;9.20;;;;;;;;;;5006205;28;20448;-77
2022/04/22 09:33:10;;;;;;;12.70;10.18;;;;;;;;;;5006901;28;20033;-77
2022/04/22 09:42:38;;;;;;;12.68;9.48;;;;;;;;;;5006709;28;20035;-78
2022/04/22 09:43:50;;;;;;;14.10;10.52;;;;;;;;;;5024152;28;20048;-77
2022/04/22 09:46:30;;;;;;;16.80;10.95;;;;;;;;;;5010361;28;20507;-78
2022/04/22 09:48:56;;;;;;;13.90;10.13;;;;;;;;;;5011255;28;20034;-78
2022/04/22 09:51:30;;;;;;;14.13;10.45;;;;;;;;;;5026693;28;20034;-78
2022/04/22 09:54:03;;;;;;;14.07;10.77;;;;;;;;;;5010188;28;20034;-78
2022/04/22 09:56:29;;;;;;;16.98;11.38;;;;;;;;;;4998658;28;20091;-78
2022/04/22 09:58:57;;;;;;;12.65;10.82;;;;;;;;;;5010261;28;20041;-78
2022/04/22 10:01:24;;;;;;;15.73;10.95;;;;;;;;;;5009836;28;20061;-78
2022/04/22 10:03:50;;;;;;;16.40;12.38;;;;;;;;;;5008564;28;20674;-79
2022/04/22 10:06:15;;;;;;;17.88;13.60;;;;;;;;;;5009287;28;20084;-79
2022/04/22 10:08:43;;;;;;;19.65;15.65;;;;;;;;;;5009908;28;20115;-79
2022/04/22 10:11:10;;;;;;;18.83;16.10;;;;;;;;;;5009376;28;20103;-79
2022/04/22 10:13:44;;;;;;;17.75;15.25;;;;;;;;;;5026410;28;20037;-79
2022/04/22 10:16:13;;;;;;;19.35;15.13;;;;;;;;;;5025182;28;20252;-79
2022/04/22 10:18:40;;;;;;;18.75;15.65;;;;;;;;;;5009194;28;20048;-79
2022/04/22 10:21:06;;;;;;;19.63;15.73;;;;;;;;;;5008918;28;20120;-79
2022/04/22 10:23:32;;;;;;;22.75;17.13;;;;;;;;;;4999513;28;20113;-79
2022/04/22 10:25:57;;;;;;;19.85;16.52;;;;;;;;;;5010451;28;20090;-79
2022/04/22 10:28:24;;;;;;;19.25;16.08;;;;;;;;;;5008953;28;20049;-79
2022/04/22 10:30:50;;;;;;;19.27;16.07;;;;;;;;;;5008687;28;20060;-79
2022/04/22 10:33:16;;;;;;;21.65;16.38;;;;;;;;;;5009568;28;20055;-79
2022/04/22 10:35:44;;;;;;;22.23;16.58;;;;;;;;;;4999362;28;20037;-79
2022/04/22 10:38:25;;;;;;;20.15;16.50;;;;;;;;;;5007623;28;20045;-79
2022/04/22 10:40:50;;;;;;;18.70;15.40;;;;;;;;;;5009028;28;20073;-79
2022/04/22 10:43:15;;;;;;;21.77;15.88;;;;;;;;;;5003458;28;20513;-78
2022/04/22 10:48:25;;;;;;;21.50;15.93;;;;;;;;;;5025682;28;21168;-79
2022/04/22 10:51:01;;;;;;;18.10;15.32;;;;;;;;;;5009370;28;20045;-79
2022/04/22 10:53:27;;;;;;;22.60;16.05;;;;;;;;;;5026208;28;20033;-79
2022/04/22 10:55:53;;;;;;;20.55;16.90;;;;;;;;;;5024647;28;20076;-79
2022/04/22 10:58:21;;;;;;;21.33;17.30;;;;;;;;;;5008993;28;20045;-79
2022/04/22 11:00:48;;;;;;;22.63;18.23;;;;;;;;;;5025068;28;20121;-78
2022/04/22 11:03:14;;;;;;;23.15;19.70;;;;;;;;;;5009129;28;20060;-78
2022/04/22 11:05:46;;;;;;;25.98;20.10;;;;;;;;;;5026808;28;20072;-78
2022/04/22 11:08:47;;;;;;;23.73;20.60;;;;;;;;;;5000505;28;20052;-79
2022/04/22 11:11:20;;;;;;;24.83;20.55;;;;;;;;;;5002787;28;20400;-80
2022/04/22 11:13:49;;;;;;;26.55;20.38;;;;;;;;;;5009333;28;20052;-78
2022/04/22 11:16:14;;;;;;;21.90;19.40;;;;;;;;;;5001100;28;20576;-78
2022/04/22 11:18:42;;;;;;;24.25;19.90;;;;;;;;;;5025096;28;20183;-79
2022/04/22 11:21:15;;;;;;;26.35;20.90;;;;;;;;;;5008401;28;20029;-79
2022/04/22 11:23:44;;;;;;;23.90;19.98;;;;;;;;;;5009014;28;20037;-78
2022/04/22 11:26:16;;;;;;;24.67;20.45;;;;;;;;;;5008585;28;20126;-79
2022/04/22 11:28:46;;;;;;;23.25;19.92;;;;;;;;;;4999250;28;20146;-79
2022/04/22 11:31:13;;;;;;;24.73;20.17;;;;;;;;;;5021421;28;20040;-79
2022/04/22 11:33:54;;;;;;;28.63;20.95;;;;;;;;;;5008248;28;20053;-79
2022/04/22 11:36:20;;;;;;;26.42;22.13;;;;;;;;;;5008356;28;20033;-79
2022/04/22 11:38:50;;;;;;;26.35;21.80;;;;;;;;;;5008334;28;20413;-78
2022/04/22 11:41:16;;;;;;;26.38;21.88;;;;;;;;;;5024289;28;20064;-79
2022/04/22 11:43:43;;;;;;;25.08;22.27;;;;;;;;;;5008253;28;20034;-78
2022/04/22 11:46:10;;;;;;;26.95;23.13;;;;;;;;;;5007678;28;20400;-79
2022/04/22 11:48:43;;;;;;;26.42;23.10;;;;;;;;;;5008085;28;20045;-79
2022/04/22 11:51:09;;;;;;;27.58;23.58;;;;;;;;;;4997475;28;20030;-79
2022/04/22 11:53:34;;;;;;;29.00;24.50;;;;;;;;;;5008264;28;20151;-79
2022/04/22 11:56:03;;;;;;;27.48;23.42;;;;;;;;;;5008087;28;20046;-78
2022/04/22 11:58:28;;;;;;;27.40;23.70;;;;;;;;;;5002437;28;20525;-79
2022/04/22 12:06:24;;;;;;;29.17;23.73;;;;;;;;;;5023600;28;20471;-79
2022/04/22 12:08:54;;;;;;;28.80;25.00;;;;;;;;;;5017571;28;20114;-80
2022/04/22 12:11:21;;;;;;;31.27;25.80;;;;;;;;;;4996953;28;20029;-79
2022/04/22 12:13:47;;;;;;;27.95;24.85;;;;;;;;;;5007531;28;20061;-79
2022/04/22 12:16:17;;;;;;;28.63;24.60;;;;;;;;;;5007072;28;20651;-79
2022/04/22 12:18:43;;;;;;;28.63;24.17;;;;;;;;;;4997989;28;20052;-79
2022/04/22 12:21:11;;;;;;;30.15;24.50;;;;;;;;;;5007174;28;20033;-79
2022/04/22 12:23:39;;;;;;;26.65;23.35;;;;;;;;;;5012890;28;20033;-78
2022/04/22 12:26:05;;;;;;;27.05;22.83;;;;;;;;;;5006178;28;20100;-78
2022/04/22 12:28:31;;;;;;;29.75;23.90;;;;;;;;;;5015207;28;20050;-78
2022/04/22 12:30:57;;;;;;;30.77;24.55;;;;;;;;;;5006723;28;20045;-79
2022/04/22 12:33:24;;;;;;;33.28;23.63;;;;;;;;;;5007423;28;20029;-79
2022/04/22 12:36:05;;;;;;;29.17;24.63;;;;;;;;;;5007013;28;20037;-78
2022/04/22 12:38:31;;;;;;;28.00;23.98;;;;;;;;;;5000907;28;20124;-77
2022/04/22 12:40:57;;;;;;;27.83;24.38;;;;;;;;;;5006890;28;20033;-78
2022/04/22 12:43:27;;;;;;;26.83;22.45;;;;;;;;;;5022964;28;20041;-78
2022/04/22 12:54:11;;;;;;;29.33;23.90;;;;;;;;;;5023272;28;20060;-79
2022/04/22 12:56:37;;;;;;;30.58;25.20;;;;;;;;;;5006859;28;20527;-78
2022/04/22 12:59:03;;;;;;;29.90;24.70;;;;;;;;;;5006969;28;20037;-77
2022/04/22 13:01:40;;;;;;;29.27;24.25;;;;;;;;;;5005814;28;20451;-77
2022/04/22 13:04:07;;;;;;;27.15;23.63;;;;;;;;;;5023389;28;20451;-78
2022/04/22 13:06:43;;;;;;;25.60;22.20;;;;;;;;;;5013077;28;20617;-78
2022/04/22 13:09:10;;;;;;;23.80;21.20;;;;;;;;;;5017280;28;20033;-79
2022/04/22 13:11:35;;;;;;;27.30;22.48;;;;;;;;;;5022617;28;20109;-79
2022/04/22 13:14:01;;;;;;;26.13;21.65;;;;;;;;;;5023501;28;20037;-78
2022/04/22 13:16:27;;;;;;;23.75;19.83;;;;;;;;;;5006344;28;20040;-80
2022/04/22 13:18:52;;;;;;;22.88;18.17;;;;;;;;;;5007781;28;20037;-79
2022/04/22 13:21:18;;;;;;;19.98;17.10;;;;;;;;;;5011011;28;20029;-79
2022/04/22 13:23:43;;;;;;;19.02;16.15;;;;;;;;;;5006525;28;20041;-80
2022/04/22 13:26:11;;;;;;;19.08;15.10;;;;;;;;;;5024763;28;20839;-79
2022/04/22 13:28:37;;;;;;;19.13;15.18;;;;;;;;;;5005853;28;20107;-80
2022/04/22 13:31:02;;;;;;;16.90;14.32;;;;;;;;;;5011136;28;20033;-80
2022/04/22 13:33:31;;;;;;;18.05;15.15;;;;;;;;;;5010689;28;20508;-80
2022/04/22 13:36:01;;;;;;;17.77;14.73;;;;;;;;;;5010469;28;20037;-80
2022/04/22 13:38:26;;;;;;;18.15;15.75;;;;;;;;;;5010641;28;20037;-80
2022/04/22 13:40:52;;;;;;;17.85;14.90;;;;;;;;;;5010187;28;20052;-79
2022/04/22 13:43:17;;;;;;;17.00;15.20;;;;;;;;;;5009838;28;20037;-79
2022/04/22 13:53:53;;;;;;;16.50;13.90;;;;;;;;;;5026800;28;20137;-78
2022/04/22 13:56:19;;;;;;;17.17;14.25;;;;;;;;;;5010369;28;20124;-79
2022/04/22 13:58:44;;;;;;;16.23;13.60;;;;;;;;;;5026207;28;20531;-78
2022/04/22 14:01:09;;;;;;;16.92;14.80;;;;;;;;;;5026018;28;20037;-78
2022/04/22 14:03:34;;;;;;;19.38;14.63;;;;;;;;;;5010361;28;20061;-80
2022/04/22 14:06:00;;;;;;;17.20;14.63;;;;;;;;;;5004903;28;20042;-78
2022/04/22 14:08:26;;;;;;;17.15;13.98;;;;;;;;;;5023059;28;20060;-78
2022/04/22 14:10:51;;;;;;;15.90;13.73;;;;;;;;;;5009448;28;20038;-78
2022/04/22 14:13:16;;;;;;;17.77;14.50;;;;;;;;;;5004621;28;20313;-79
2022/04/22 14:15:42;;;;;;;16.85;13.20;;;;;;;;;;5009520;28;20033;-77
2022/04/22 14:18:08;;;;;;;16.25;13.52;;;;;;;;;;5009655;28;20044;-79
2022/04/22 14:20:33;;;;;;;14.77;13.10;;;;;;;;;;5010263;28;20029;-79
2022/04/22 14:22:58;;;;;;;16.40;12.98;;;;;;;;;;5009821;28;20108;-78
2022/04/22 14:25:24;;;;;;;14.23;12.65;;;;;;;;;;5010040;28;20029;-78
2022/04/22 14:27:49;;;;;;;13.82;11.05;;;;;;;;;;5004916;28;20041;-80
2022/04/22 14:30:14;;;;;;;12.73;10.57;;;;;;;;;;5008922;28;20713;-78
2022/04/22 14:32:40;;;;;;;12.48;9.88;;;;;;;;;;5009418;28;20435;-78
2022/04/22 14:35:06;;;;;;;12.73;9.88;;;;;;;;;;5010152;28;20045;-79
2022/04/22 14:37:33;;;;;;;11.35;9.63;;;;;;;;;;4998631;28;20029;-79
2022/04/22 14:39:59;;;;;;;11.47;9.90;;;;;;;;;;5008669;28;20034;-79
2022/04/22 14:42:24;;;;;;;11.50;9.98;;;;;;;;;;5009041;28;20029;-79
2022/04/22 14:44:49;;;;;;;11.43;9.43;;;;;;;;;;5000663;28;20041;-79
2022/04/22 14:47:16;;;;;;;12.00;9.73;;;;;;;;;;5002170;28;20529;-79
2022/04/22 14:49:41;;;;;;;11.55;9.70;;;;;;;;;;5009664;28;20046;-78
2022/04/22 14:52:07;;;;;;;9.75;8.60;;;;;;;;;;5008689;28;20040;-78
2022/04/22 14:54:33;;;;;;;10.82;9.60;;;;;;;;;;5009570;28;20401;-78
2022/04/22 14:57:01;;;;;;;10.75;8.93;;;;;;;;;;4988409;28;20066;-79
2022/04/22 14:59:26;;;;;;;14.30;9.48;;;;;;;;;;5008999;28;20156;-78
2022/04/22 15:01:51;;;;;;;10.98;9.23;;;;;;;;;;5004829;28;20127;-78
2022/04/22 15:04:16;;;;;;;10.50;8.75;;;;;;;;;;5024975;28;20401;-77
2022/04/22 15:06:42;;;;;;;11.27;9.43;;;;;;;;;;5008153;28;20535;-79
2022/04/22 15:09:10;;;;;;;11.50;9.25;;;;;;;;;;5008103;28;20040;-78
2022/04/22 15:11:35;;;;;;;10.70;9.60;;;;;;;;;;5008229;28;20041;-81
2022/04/22 15:14:03;;;;;;;11.65;9.40;;;;;;;;;;5009125;28;20040;-79
2022/04/22 15:16:31;;;;;;;;;;;;;;;;;;5009250;28;20037;-79
2022/04/22 15:24:31;;;;;;;9.40;7.80;;;;;;;;;;5011482;28;20107;-79
2022/04/22 15:26:58;;;;;;;9.45;7.63;;;;;;;;;;4999369;28;20040;-79
2022/04/22 15:29:27;;;;;;;9.30;7.17;;;;;;;;;;5008564;28;20460;-79
2022/04/22 15:31:55;;;;;;;9.10;7.50;;;;;;;;;;4977429;28;20284;-78
2022/04/22 15:34:20;;;;;;;8.25;7.00;;;;;;;;;;5024526;28;20033;-79
2022/04/22 15:36:46;;;;;;;9.23;7.40;;;;;;;;;;4999151;28;20053;-78
2022/04/22 15:39:13;;;;;;;8.60;7.18;;;;;;;;;;5008695;28;20041;-79
2022/04/22 15:41:41;;;;;;;9.80;7.30;;;;;;;;;;5006401;28;20065;-79
2022/04/22 15:44:06;;;;;;;9.38;6.93;;;;;;;;;;5008309;28;20053;-79